sensor_id;sensor_type;location;lat;lon;timestamp;P1;durP1;ratioP1;P2;durP2;ratioP2
64875;SDS011;51369;49.862;9.908;2022-10-26T00:01:05;9.27;;;3.28;;
64875;SDS011;51369;49.862;9.908;2022-10-26T00:03:36;11.43;;;2.45;;
64875;SDS011;51369;49.862;9.908;2022-10-26T00:06:03;4.72;;;2.60;;
64875;SDS011;51369;49.862;9.908;2022-10-26T00:08:29;8.43;;;2.67;;
64875;SDS011;51369;49.862;9.908;2022-10-26T00:10:58;6.80;;;2.45;;
64875;SDS011;51369;49.862;9.908;2022-10-26T00:13:23;3.72;;;1.92;;
64875;SDS011;51369;49.862;9.908;2022-10-26T00:15:49;8.65;;;2.58;;
64875;SDS011;51369;49.862;9.908;2022-10-26T00:18:14;6.30;;;2.42;;
64875;SDS011;51369;49.862;9.908;2022-10-26T00:20:40;9.50;;;3.00;;
64875;SDS011;51369;49.862;9.908;2022-10-26T00:23:06;14.27;;;4.25;;
64875;SDS011;51369;49.862;9.908;2022-10-26T00:25:32;6.43;;;2.97;;
64875;SDS011;51369;49.862;9.908;2022-10-26T00:27:57;8.77;;;2.35;;
64875;SDS011;51369;49.862;9.908;2022-10-26T00:30:23;10.50;;;2.67;;
64875;SDS011;51369;49.862;9.908;2022-10-26T00:32:48;9.38;;;2.35;;
64875;SDS011;51369;49.862;9.908;2022-10-26T00:35:13;10.63;;;2.13;;
64875;SDS011;51369;49.862;9.908;2022-10-26T00:37:39;13.40;;;2.45;;
64875;SDS011;51369;49.862;9.908;2022-10-26T00:40:04;6.63;;;1.88;;
64875;SDS011;51369;49.862;9.908;2022-10-26T00:42:30;16.80;;;2.47;;
64875;SDS011;51369;49.862;9.908;2022-10-26T00:44:57;3.42;;;1.58;;
64875;SDS011;51369;49.862;9.908;2022-10-26T00:47:32;8.85;;;2.03;;
64875;SDS011;51369;49.862;9.908;2022-10-26T00:50:14;19.05;;;2.72;;
64875;SDS011;51369;49.862;9.908;2022-10-26T00:52:49;4.97;;;2.28;;
64875;SDS011;51369;49.862;9.908;2022-10-26T00:55:16;11.68;;;2.40;;
64875;SDS011;51369;49.862;9.908;2022-10-26T00:57:45;9.02;;;2.33;;
64875;SDS011;51369;49.862;9.908;2022-10-26T01:00:12;4.97;;;2.30;;
64875;SDS011;51369;49.862;9.908;2022-10-26T01:02:38;10.90;;;3.88;;
64875;SDS011;51369;49.862;9.908;2022-10-26T01:05:03;12.40;;;3.88;;
64875;SDS011;51369;49.862;9.908;2022-10-26T01:07:30;9.07;;;4.22;;
64875;SDS011;51369;49.862;9.908;2022-10-26T01:09:57;7.45;;;3.88;;
64875;SDS011;51369;49.862;9.908;2022-10-26T01:12:23;13.00;;;4.22;;
64875;SDS011;51369;49.862;9.908;2022-10-26T01:14:49;4.95;;;3.58;;
64875;SDS011;51369;49.862;9.908;2022-10-26T01:23:07;7.47;;;2.78;;
64875;SDS011;51369;49.862;9.908;2022-10-26T01:26:10;9.27;;;2.73;;
64875;SDS011;51369;49.862;9.908;2022-10-26T01:31:42;7.35;;;3.20;;
64875;SDS011;51369;49.862;9.908;2022-10-26T01:36:53;11.68;;;2.83;;
64875;SDS011;51369;49.862;9.908;2022-10-26T01:42:02;12.63;;;3.15;;
64875;SDS011;51369;49.862;9.908;2022-10-26T01:44:33;8.63;;;2.90;;
64875;SDS011;51369;49.862;9.908;2022-10-26T01:47:06;6.65;;;3.00;;
64875;SDS011;51369;49.862;9.908;2022-10-26T01:49:35;4.57;;;2.70;;
64875;SDS011;51369;49.862;9.908;2022-10-26T01:52:05;6.88;;;3.28;;
64875;SDS011;51369;49.862;9.908;2022-10-26T01:54:34;12.25;;;3.38;;
64875;SDS011;51369;49.862;9.908;2022-10-26T01:57:01;10.57;;;2.83;;
64875;SDS011;51369;49.862;9.908;2022-10-26T02:02:12;10.70;;;4.00;;
64875;SDS011;51369;49.862;9.908;2022-10-26T02:21:36;11.52;;;6.05;;
64875;SDS011;51369;49.862;9.908;2022-10-26T02:24:05;18.35;;;6.93;;
64875;SDS011;51369;49.862;9.908;2022-10-26T02:26:34;14.18;;;5.65;;
64875;SDS011;51369;49.862;9.908;2022-10-26T02:29:01;8.10;;;6.38;;
64875;SDS011;51369;49.862;9.908;2022-10-26T02:31:31;12.73;;;6.55;;
64875;SDS011;51369;49.862;9.908;2022-10-26T02:33:59;12.65;;;7.22;;
64875;SDS011;51369;49.862;9.908;2022-10-26T02:36:29;15.68;;;4.97;;
64875;SDS011;51369;49.862;9.908;2022-10-26T02:38:59;9.25;;;4.68;;
64875;SDS011;51369;49.862;9.908;2022-10-26T02:41:27;13.15;;;5.30;;
64875;SDS011;51369;49.862;9.908;2022-10-26T02:44:07;8.98;;;4.65;;
64875;SDS011;51369;49.862;9.908;2022-10-26T02:46:37;13.52;;;5.07;;
64875;SDS011;51369;49.862;9.908;2022-10-26T02:49:02;16.13;;;6.30;;
64875;SDS011;51369;49.862;9.908;2022-10-26T02:57:10;14.23;;;6.20;;
64875;SDS011;51369;49.862;9.908;2022-10-26T02:59:37;12.32;;;5.85;;
64875;SDS011;51369;49.862;9.908;2022-10-26T03:02:07;8.07;;;5.03;;
64875;SDS011;51369;49.862;9.908;2022-10-26T03:04:33;9.27;;;4.93;;
64875;SDS011;51369;49.862;9.908;2022-10-26T03:06:59;10.73;;;5.35;;
64875;SDS011;51369;49.862;9.908;2022-10-26T03:09:25;11.20;;;4.95;;
64875;SDS011;51369;49.862;9.908;2022-10-26T03:11:51;17.80;;;7.85;;
64875;SDS011;51369;49.862;9.908;2022-10-26T03:14:17;10.32;;;5.72;;
64875;SDS011;51369;49.862;9.908;2022-10-26T03:16:42;19.02;;;6.30;;
64875;SDS011;51369;49.862;9.908;2022-10-26T03:19:07;9.80;;;5.90;;
64875;SDS011;51369;49.862;9.908;2022-10-26T03:21:33;18.70;;;6.57;;
64875;SDS011;51369;49.862;9.908;2022-10-26T03:23:58;11.63;;;5.45;;
64875;SDS011;51369;49.862;9.908;2022-10-26T03:26:24;11.52;;;7.25;;
64875;SDS011;51369;49.862;9.908;2022-10-26T03:28:49;16.60;;;7.40;;
64875;SDS011;51369;49.862;9.908;2022-10-26T03:31:15;13.55;;;7.30;;
64875;SDS011;51369;49.862;9.908;2022-10-26T03:33:40;11.65;;;7.47;;
64875;SDS011;51369;49.862;9.908;2022-10-26T03:36:06;11.35;;;7.05;;
64875;SDS011;51369;49.862;9.908;2022-10-26T03:38:32;11.93;;;7.20;;
64875;SDS011;51369;49.862;9.908;2022-10-26T03:40:57;18.20;;;7.40;;
64875;SDS011;51369;49.862;9.908;2022-10-26T03:43:23;14.02;;;7.35;;
64875;SDS011;51369;49.862;9.908;2022-10-26T03:45:48;14.35;;;7.07;;
64875;SDS011;51369;49.862;9.908;2022-10-26T03:48:14;11.40;;;6.90;;
64875;SDS011;51369;49.862;9.908;2022-10-26T03:50:39;12.68;;;6.43;;
64875;SDS011;51369;49.862;9.908;2022-10-26T03:53:05;11.30;;;6.82;;
64875;SDS011;51369;49.862;9.908;2022-10-26T03:55:30;11.75;;;7.30;;
64875;SDS011;51369;49.862;9.908;2022-10-26T03:57:56;13.35;;;7.65;;
64875;SDS011;51369;49.862;9.908;2022-10-26T04:00:21;14.25;;;9.45;;
64875;SDS011;51369;49.862;9.908;2022-10-26T04:02:52;19.65;;;9.02;;
64875;SDS011;51369;49.862;9.908;2022-10-26T04:05:19;16.77;;;7.72;;
64875;SDS011;51369;49.862;9.908;2022-10-26T04:07:50;14.23;;;8.98;;
64875;SDS011;51369;49.862;9.908;2022-10-26T04:12:42;10.20;;;7.28;;
64875;SDS011;51369;49.862;9.908;2022-10-26T04:15:08;11.50;;;7.22;;
64875;SDS011;51369;49.862;9.908;2022-10-26T04:17:34;12.35;;;7.75;;
64875;SDS011;51369;49.862;9.908;2022-10-26T04:19:59;11.82;;;7.00;;
64875;SDS011;51369;49.862;9.908;2022-10-26T04:22:25;18.38;;;7.90;;
64875;SDS011;51369;49.862;9.908;2022-10-26T04:24:50;14.38;;;8.07;;
64875;SDS011;51369;49.862;9.908;2022-10-26T04:27:15;11.70;;;7.82;;
64875;SDS011;51369;49.862;9.908;2022-10-26T04:29:41;22.10;;;8.60;;
64875;SDS011;51369;49.862;9.908;2022-10-26T04:32:06;15.60;;;8.25;;
64875;SDS011;51369;49.862;9.908;2022-10-26T04:34:32;17.48;;;8.32;;
64875;SDS011;51369;49.862;9.908;2022-10-26T04:36:57;12.63;;;8.93;;
64875;SDS011;51369;49.862;9.908;2022-10-26T04:39:23;21.70;;;8.15;;
64875;SDS011;51369;49.862;9.908;2022-10-26T04:41:48;20.90;;;11.02;;
64875;SDS011;51369;49.862;9.908;2022-10-26T04:44:14;12.20;;;8.60;;
64875;SDS011;51369;49.862;9.908;2022-10-26T04:46:39;14.15;;;8.40;;
64875;SDS011;51369;49.862;9.908;2022-10-26T04:49:05;15.02;;;7.75;;
64875;SDS011;51369;49.862;9.908;2022-10-26T04:51:30;14.00;;;8.30;;
64875;SDS011;51369;49.862;9.908;2022-10-26T04:53:56;13.75;;;8.20;;
64875;SDS011;51369;49.862;9.908;2022-10-26T04:56:22;19.65;;;8.40;;
64875;SDS011;51369;49.862;9.908;2022-10-26T04:58:48;19.35;;;8.98;;
64875;SDS011;51369;49.862;9.908;2022-10-26T05:01:13;15.32;;;9.40;;
64875;SDS011;51369;49.862;9.908;2022-10-26T05:03:39;17.40;;;10.00;;
64875;SDS011;51369;49.862;9.908;2022-10-26T05:06:04;19.77;;;9.07;;
64875;SDS011;51369;49.862;9.908;2022-10-26T05:08:30;17.45;;;8.80;;
64875;SDS011;51369;49.862;9.908;2022-10-26T05:10:55;14.23;;;8.50;;
64875;SDS011;51369;49.862;9.908;2022-10-26T05:13:21;11.75;;;7.90;;
64875;SDS011;51369;49.862;9.908;2022-10-26T05:15:46;17.42;;;8.23;;
64875;SDS011;51369;49.862;9.908;2022-10-26T05:18:12;12.13;;;8.35;;
64875;SDS011;51369;49.862;9.908;2022-10-26T05:20:37;14.15;;;7.80;;
64875;SDS011;51369;49.862;9.908;2022-10-26T05:23:04;11.45;;;7.50;;
64875;SDS011;51369;49.862;9.908;2022-10-26T05:25:33;13.85;;;7.28;;
64875;SDS011;51369;49.862;9.908;2022-10-26T05:28:00;15.88;;;8.10;;
64875;SDS011;51369;49.862;9.908;2022-10-26T05:30:28;15.13;;;7.82;;
64875;SDS011;51369;49.862;9.908;2022-10-26T05:32:57;14.20;;;8.50;;
64875;SDS011;51369;49.862;9.908;2022-10-26T05:35:26;14.73;;;7.57;;
64875;SDS011;51369;49.862;9.908;2022-10-26T05:37:52;10.93;;;7.30;;
64875;SDS011;51369;49.862;9.908;2022-10-26T05:40:18;15.80;;;8.95;;
64875;SDS011;51369;49.862;9.908;2022-10-26T05:42:44;14.75;;;7.80;;
64875;SDS011;51369;49.862;9.908;2022-10-26T05:45:10;14.32;;;8.48;;
64875;SDS011;51369;49.862;9.908;2022-10-26T05:47:39;13.77;;;8.95;;
64875;SDS011;51369;49.862;9.908;2022-10-26T05:50:06;19.65;;;9.07;;
64875;SDS011;51369;49.862;9.908;2022-10-26T05:52:39;16.60;;;9.10;;
64875;SDS011;51369;49.862;9.908;2022-10-26T05:55:05;14.70;;;8.95;;
64875;SDS011;51369;49.862;9.908;2022-10-26T05:57:32;16.80;;;9.40;;
64875;SDS011;51369;49.862;9.908;2022-10-26T05:59:58;13.85;;;7.90;;
64875;SDS011;51369;49.862;9.908;2022-10-26T06:05:03;13.52;;;8.25;;
64875;SDS011;51369;49.862;9.908;2022-10-26T06:07:29;14.30;;;7.75;;
64875;SDS011;51369;49.862;9.908;2022-10-26T06:09:55;19.60;;;8.70;;
64875;SDS011;51369;49.862;9.908;2022-10-26T06:12:21;18.58;;;7.70;;
64875;SDS011;51369;49.862;9.908;2022-10-26T06:14:47;14.45;;;6.88;;
64875;SDS011;51369;49.862;9.908;2022-10-26T06:22:47;11.05;;;7.18;;
64875;SDS011;51369;49.862;9.908;2022-10-26T06:31:08;12.02;;;7.20;;
64875;SDS011;51369;49.862;9.908;2022-10-26T06:33:35;13.10;;;7.22;;
64875;SDS011;51369;49.862;9.908;2022-10-26T06:36:03;12.10;;;7.00;;
64875;SDS011;51369;49.862;9.908;2022-10-26T06:38:33;13.95;;;9.68;;
64875;SDS011;51369;49.862;9.908;2022-10-26T06:40:59;13.35;;;8.55;;
64875;SDS011;51369;49.862;9.908;2022-10-26T06:43:26;16.13;;;9.27;;
64875;SDS011;51369;49.862;9.908;2022-10-26T06:51:25;14.65;;;8.07;;
64875;SDS011;51369;49.862;9.908;2022-10-26T06:54:03;15.88;;;7.90;;
64875;SDS011;51369;49.862;9.908;2022-10-26T06:56:36;16.23;;;7.07;;
64875;SDS011;51369;49.862;9.908;2022-10-26T06:59:12;19.40;;;8.85;;
64875;SDS011;51369;49.862;9.908;2022-10-26T07:01:44;15.90;;;8.40;;
64875;SDS011;51369;49.862;9.908;2022-10-26T07:04:09;20.75;;;8.60;;
64875;SDS011;51369;49.862;9.908;2022-10-26T07:06:35;18.88;;;8.25;;
64875;SDS011;51369;49.862;9.908;2022-10-26T07:09:00;15.63;;;7.40;;
64875;SDS011;51369;49.862;9.908;2022-10-26T07:11:25;16.27;;;8.18;;
64875;SDS011;51369;49.862;9.908;2022-10-26T07:13:51;14.73;;;7.75;;
64875;SDS011;51369;49.862;9.908;2022-10-26T07:16:16;10.98;;;7.78;;
64875;SDS011;51369;49.862;9.908;2022-10-26T07:18:42;19.70;;;8.27;;
64875;SDS011;51369;49.862;9.908;2022-10-26T07:21:07;21.88;;;8.25;;
64875;SDS011;51369;49.862;9.908;2022-10-26T07:23:34;16.58;;;9.70;;
64875;SDS011;51369;49.862;9.908;2022-10-26T07:25:59;17.20;;;8.35;;
64875;SDS011;51369;49.862;9.908;2022-10-26T07:28:25;12.85;;;7.88;;
64875;SDS011;51369;49.862;9.908;2022-10-26T07:30:50;12.57;;;8.30;;
64875;SDS011;51369;49.862;9.908;2022-10-26T07:33:16;20.48;;;9.60;;
64875;SDS011;51369;49.862;9.908;2022-10-26T07:35:41;38.33;;;11.95;;
64875;SDS011;51369;49.862;9.908;2022-10-26T07:38:07;27.98;;;9.00;;
64875;SDS011;51369;49.862;9.908;2022-10-26T07:40:33;19.73;;;9.00;;
64875;SDS011;51369;49.862;9.908;2022-10-26T07:42:59;13.07;;;8.40;;
64875;SDS011;51369;49.862;9.908;2022-10-26T07:45:28;19.38;;;8.57;;
64875;SDS011;51369;49.862;9.908;2022-10-26T07:47:54;17.90;;;8.80;;
64875;SDS011;51369;49.862;9.908;2022-10-26T07:50:20;14.57;;;9.40;;
64875;SDS011;51369;49.862;9.908;2022-10-26T07:52:45;16.60;;;9.48;;
64875;SDS011;51369;49.862;9.908;2022-10-26T07:55:11;17.77;;;9.75;;
64875;SDS011;51369;49.862;9.908;2022-10-26T07:57:37;18.25;;;10.60;;
64875;SDS011;51369;49.862;9.908;2022-10-26T08:00:04;24.77;;;9.70;;
64875;SDS011;51369;49.862;9.908;2022-10-26T08:02:33;17.70;;;10.02;;
64875;SDS011;51369;49.862;9.908;2022-10-26T08:04:59;15.90;;;9.90;;
64875;SDS011;51369;49.862;9.908;2022-10-26T08:07:24;20.58;;;11.05;;
64875;SDS011;51369;49.862;9.908;2022-10-26T08:09:50;26.00;;;10.77;;
64875;SDS011;51369;49.862;9.908;2022-10-26T08:12:16;12.75;;;9.63;;
64875;SDS011;51369;49.862;9.908;2022-10-26T08:14:42;24.30;;;11.48;;
64875;SDS011;51369;49.862;9.908;2022-10-26T08:17:08;39.75;;;12.68;;
64875;SDS011;51369;49.862;9.908;2022-10-26T08:19:33;23.58;;;10.75;;
64875;SDS011;51369;49.862;9.908;2022-10-26T08:21:59;25.65;;;12.30;;
64875;SDS011;51369;49.862;9.908;2022-10-26T08:24:24;23.85;;;11.40;;
64875;SDS011;51369;49.862;9.908;2022-10-26T08:26:50;19.02;;;11.43;;
64875;SDS011;51369;49.862;9.908;2022-10-26T08:29:15;22.40;;;11.13;;
64875;SDS011;51369;49.862;9.908;2022-10-26T08:31:40;17.30;;;11.60;;
64875;SDS011;51369;49.862;9.908;2022-10-26T08:34:06;17.58;;;11.68;;
64875;SDS011;51369;49.862;9.908;2022-10-26T08:36:31;18.77;;;11.93;;
64875;SDS011;51369;49.862;9.908;2022-10-26T08:38:57;23.67;;;12.27;;
64875;SDS011;51369;49.862;9.908;2022-10-26T08:41:41;19.67;;;12.45;;
64875;SDS011;51369;49.862;9.908;2022-10-26T08:44:12;21.73;;;12.32;;
64875;SDS011;51369;49.862;9.908;2022-10-26T08:46:44;20.63;;;12.27;;
64875;SDS011;51369;49.862;9.908;2022-10-26T08:49:19;21.23;;;12.35;;
64875;SDS011;51369;49.862;9.908;2022-10-26T08:51:49;26.60;;;11.25;;
64875;SDS011;51369;49.862;9.908;2022-10-26T08:54:25;26.23;;;11.57;;
64875;SDS011;51369;49.862;9.908;2022-10-26T08:56:58;22.95;;;11.43;;
64875;SDS011;51369;49.862;9.908;2022-10-26T08:59:37;24.20;;;11.02;;
64875;SDS011;51369;49.862;9.908;2022-10-26T09:02:14;19.20;;;11.02;;
64875;SDS011;51369;49.862;9.908;2022-10-26T09:04:41;20.30;;;11.35;;
64875;SDS011;51369;49.862;9.908;2022-10-26T09:15:13;24.02;;;10.55;;
64875;SDS011;51369;49.862;9.908;2022-10-26T09:25:54;12.60;;;9.25;;
64875;SDS011;51369;49.862;9.908;2022-10-26T09:28:23;13.05;;;8.55;;
64875;SDS011;51369;49.862;9.908;2022-10-26T09:30:52;15.25;;;9.45;;
64875;SDS011;51369;49.862;9.908;2022-10-26T09:33:18;14.48;;;8.38;;
64875;SDS011;51369;49.862;9.908;2022-10-26T09:35:54;15.60;;;8.32;;
64875;SDS011;51369;49.862;9.908;2022-10-26T09:46:17;12.63;;;6.30;;
64875;SDS011;51369;49.862;9.908;2022-10-26T09:48:48;15.70;;;7.30;;
64875;SDS011;51369;49.862;9.908;2022-10-26T09:51:18;12.30;;;6.85;;
64875;SDS011;51369;49.862;9.908;2022-10-26T09:53:43;15.82;;;6.70;;
64875;SDS011;51369;49.862;9.908;2022-10-26T09:56:10;9.40;;;6.30;;
64875;SDS011;51369;49.862;9.908;2022-10-26T09:58:47;10.30;;;6.32;;
64875;SDS011;51369;49.862;9.908;2022-10-26T10:01:20;12.05;;;6.15;;
64875;SDS011;51369;49.862;9.908;2022-10-26T10:06:34;10.98;;;6.03;;
64875;SDS011;51369;49.862;9.908;2022-10-26T10:09:10;10.98;;;7.00;;
64875;SDS011;51369;49.862;9.908;2022-10-26T10:11:40;11.77;;;7.68;;
64875;SDS011;51369;49.862;9.908;2022-10-26T10:14:08;14.18;;;7.75;;
64875;SDS011;51369;49.862;9.908;2022-10-26T10:16:41;13.90;;;7.45;;
64875;SDS011;51369;49.862;9.908;2022-10-26T10:19:20;10.85;;;7.43;;
64875;SDS011;51369;49.862;9.908;2022-10-26T10:21:48;11.32;;;6.30;;
64875;SDS011;51369;49.862;9.908;2022-10-26T10:29:28;12.23;;;7.05;;
64875;SDS011;51369;49.862;9.908;2022-10-26T10:32:04;9.45;;;6.60;;
64875;SDS011;51369;49.862;9.908;2022-10-26T10:34:31;13.95;;;6.22;;
64875;SDS011;51369;49.862;9.908;2022-10-26T10:36:57;13.23;;;7.80;;
64875;SDS011;51369;49.862;9.908;2022-10-26T10:39:34;9.02;;;6.28;;
64875;SDS011;51369;49.862;9.908;2022-10-26T10:42:16;8.95;;;6.20;;
64875;SDS011;51369;49.862;9.908;2022-10-26T10:44:45;11.07;;;5.95;;
64875;SDS011;51369;49.862;9.908;2022-10-26T10:47:33;11.25;;;6.25;;
64875;SDS011;51369;49.862;9.908;2022-10-26T10:50:11;12.98;;;5.95;;
64875;SDS011;51369;49.862;9.908;2022-10-26T10:52:43;13.45;;;5.60;;
64875;SDS011;51369;49.862;9.908;2022-10-26T11:00:24;7.15;;;4.93;;
64875;SDS011;51369;49.862;9.908;2022-10-26T11:10:53;9.63;;;5.05;;
64875;SDS011;51369;49.862;9.908;2022-10-26T11:13:35;16.48;;;4.57;;
64875;SDS011;51369;49.862;9.908;2022-10-26T11:16:10;10.68;;;3.92;;
64875;SDS011;51369;49.862;9.908;2022-10-26T11:18:40;11.02;;;4.53;;
64875;SDS011;51369;49.862;9.908;2022-10-26T11:23:51;7.75;;;4.50;;
64875;SDS011;51369;49.862;9.908;2022-10-26T11:26:45;10.65;;;3.60;;
64875;SDS011;51369;49.862;9.908;2022-10-26T11:34:42;7.68;;;4.60;;
64875;SDS011;51369;49.862;9.908;2022-10-26T11:37:17;9.07;;;4.15;;
64875;SDS011;51369;49.862;9.908;2022-10-26T11:42:50;6.68;;;3.45;;
64875;SDS011;51369;49.862;9.908;2022-10-26T11:45:25;7.75;;;3.58;;
64875;SDS011;51369;49.862;9.908;2022-10-26T11:50:24;6.95;;;2.70;;
64875;SDS011;51369;49.862;9.908;2022-10-26T11:55:45;12.23;;;3.47;;
64875;SDS011;51369;49.862;9.908;2022-10-26T11:58:15;6.25;;;3.10;;
64875;SDS011;51369;49.862;9.908;2022-10-26T12:00:43;9.52;;;3.20;;
64875;SDS011;51369;49.862;9.908;2022-10-26T12:03:18;6.72;;;2.97;;
64875;SDS011;51369;49.862;9.908;2022-10-26T12:05:51;7.05;;;2.90;;
64875;SDS011;51369;49.862;9.908;2022-10-26T12:10:50;9.55;;;3.20;;
64875;SDS011;51369;49.862;9.908;2022-10-26T12:13:34;9.02;;;3.10;;
64875;SDS011;51369;49.862;9.908;2022-10-26T12:21:10;14.65;;;3.58;;
64875;SDS011;51369;49.862;9.908;2022-10-26T12:23:37;6.38;;;3.08;;
64875;SDS011;51369;49.862;9.908;2022-10-26T12:28:48;13.30;;;3.55;;
64875;SDS011;51369;49.862;9.908;2022-10-26T12:34:14;13.18;;;3.47;;
64875;SDS011;51369;49.862;9.908;2022-10-26T12:44:31;5.05;;;2.75;;
64875;SDS011;51369;49.862;9.908;2022-10-26T12:46:59;6.45;;;2.80;;
64875;SDS011;51369;49.862;9.908;2022-10-26T12:52:32;10.45;;;2.58;;
64875;SDS011;51369;49.862;9.908;2022-10-26T13:00:12;8.98;;;2.67;;
64875;SDS011;51369;49.862;9.908;2022-10-26T13:05:38;5.38;;;2.88;;
64875;SDS011;51369;49.862;9.908;2022-10-26T13:08:23;8.25;;;2.60;;
64875;SDS011;51369;49.862;9.908;2022-10-26T13:11:02;6.78;;;2.58;;
64875;SDS011;51369;49.862;9.908;2022-10-26T13:13:30;5.25;;;2.70;;
64875;SDS011;51369;49.862;9.908;2022-10-26T13:15:59;5.95;;;2.45;;
64875;SDS011;51369;49.862;9.908;2022-10-26T13:18:25;7.70;;;2.80;;
64875;SDS011;51369;49.862;9.908;2022-10-26T13:23:34;7.40;;;2.55;;
64875;SDS011;51369;49.862;9.908;2022-10-26T13:26:15;6.40;;;2.40;;
64875;SDS011;51369;49.862;9.908;2022-10-26T13:33:47;8.52;;;2.53;;
64875;SDS011;51369;49.862;9.908;2022-10-26T13:36:28;9.05;;;2.58;;
64875;SDS011;51369;49.862;9.908;2022-10-26T13:38:57;6.15;;;2.50;;
64875;SDS011;51369;49.862;9.908;2022-10-26T13:41:31;3.47;;;2.00;;
64875;SDS011;51369;49.862;9.908;2022-10-26T13:43:59;13.60;;;2.45;;
64875;SDS011;51369;49.862;9.908;2022-10-26T13:46:29;8.25;;;2.63;;
64875;SDS011;51369;49.862;9.908;2022-10-26T13:49:15;11.18;;;2.80;;
64875;SDS011;51369;49.862;9.908;2022-10-26T13:51:46;7.07;;;2.20;;
64875;SDS011;51369;49.862;9.908;2022-10-26T13:54:19;4.95;;;2.13;;
64875;SDS011;51369;49.862;9.908;2022-10-26T13:59:45;6.18;;;2.03;;
64875;SDS011;51369;49.862;9.908;2022-10-26T14:04:46;5.53;;;2.00;;
64875;SDS011;51369;49.862;9.908;2022-10-26T14:07:21;4.40;;;1.98;;
64875;SDS011;51369;49.862;9.908;2022-10-26T14:09:52;9.85;;;2.30;;
64875;SDS011;51369;49.862;9.908;2022-10-26T14:12:25;7.30;;;2.20;;
64875;SDS011;51369;49.862;9.908;2022-10-26T14:15:00;9.50;;;2.35;;
64875;SDS011;51369;49.862;9.908;2022-10-26T14:17:29;5.03;;;2.05;;
64875;SDS011;51369;49.862;9.908;2022-10-26T14:19:55;4.00;;;2.10;;
64875;SDS011;51369;49.862;9.908;2022-10-26T14:22:21;5.57;;;1.85;;
64875;SDS011;51369;49.862;9.908;2022-10-26T14:25:16;7.57;;;2.92;;
64875;SDS011;51369;49.862;9.908;2022-10-26T14:27:44;6.18;;;1.90;;
64875;SDS011;51369;49.862;9.908;2022-10-26T14:30:19;10.77;;;2.10;;
64875;SDS011;51369;49.862;9.908;2022-10-26T14:32:57;2.85;;;1.83;;
64875;SDS011;51369;49.862;9.908;2022-10-26T14:35:28;10.23;;;1.95;;
64875;SDS011;51369;49.862;9.908;2022-10-26T14:38:03;6.90;;;2.22;;
64875;SDS011;51369;49.862;9.908;2022-10-26T14:40:33;6.85;;;2.20;;
64875;SDS011;51369;49.862;9.908;2022-10-26T14:43:00;4.78;;;1.80;;
64875;SDS011;51369;49.862;9.908;2022-10-26T14:48:01;8.18;;;1.85;;
64875;SDS011;51369;49.862;9.908;2022-10-26T14:50:29;5.50;;;2.30;;
64875;SDS011;51369;49.862;9.908;2022-10-26T14:53:01;7.05;;;2.35;;
64875;SDS011;51369;49.862;9.908;2022-10-26T14:55:50;5.68;;;1.85;;
64875;SDS011;51369;49.862;9.908;2022-10-26T14:58:25;7.40;;;2.28;;
64875;SDS011;51369;49.862;9.908;2022-10-26T15:03:59;4.82;;;1.88;;
64875;SDS011;51369;49.862;9.908;2022-10-26T15:08:53;5.25;;;1.77;;
64875;SDS011;51369;49.862;9.908;2022-10-26T15:11:19;10.43;;;2.30;;
64875;SDS011;51369;49.862;9.908;2022-10-26T15:13:44;5.60;;;1.73;;
64875;SDS011;51369;49.862;9.908;2022-10-26T15:16:17;3.35;;;1.80;;
64875;SDS011;51369;49.862;9.908;2022-10-26T15:18:51;7.93;;;1.90;;
64875;SDS011;51369;49.862;9.908;2022-10-26T15:23:50;3.75;;;1.92;;
64875;SDS011;51369;49.862;9.908;2022-10-26T15:26:17;6.70;;;1.98;;
64875;SDS011;51369;49.862;9.908;2022-10-26T15:28:43;3.28;;;1.85;;
64875;SDS011;51369;49.862;9.908;2022-10-26T15:33:35;3.85;;;1.80;;
64875;SDS011;51369;49.862;9.908;2022-10-26T15:36:12;4.35;;;1.75;;
64875;SDS011;51369;49.862;9.908;2022-10-26T15:38:39;10.70;;;2.17;;
64875;SDS011;51369;49.862;9.908;2022-10-26T15:41:12;6.95;;;2.33;;
64875;SDS011;51369;49.862;9.908;2022-10-26T15:43:40;7.32;;;2.50;;
64875;SDS011;51369;49.862;9.908;2022-10-26T15:46:06;8.73;;;4.05;;
64875;SDS011;51369;49.862;9.908;2022-10-26T15:48:31;6.38;;;1.85;;
64875;SDS011;51369;49.862;9.908;2022-10-26T15:50:58;12.77;;;2.13;;
64875;SDS011;51369;49.862;9.908;2022-10-26T15:53:25;8.30;;;1.90;;
64875;SDS011;51369;49.862;9.908;2022-10-26T15:55:55;7.55;;;1.98;;
64875;SDS011;51369;49.862;9.908;2022-10-26T15:58:23;8.70;;;1.75;;
64875;SDS011;51369;49.862;9.908;2022-10-26T16:00:49;4.47;;;1.63;;
64875;SDS011;51369;49.862;9.908;2022-10-26T16:03:20;6.32;;;1.90;;
64875;SDS011;51369;49.862;9.908;2022-10-26T16:05:48;10.70;;;2.60;;
64875;SDS011;51369;49.862;9.908;2022-10-26T16:08:20;11.45;;;2.45;;
64875;SDS011;51369;49.862;9.908;2022-10-26T16:10:45;9.75;;;2.00;;
64875;SDS011;51369;49.862;9.908;2022-10-26T16:13:11;12.48;;;3.05;;
64875;SDS011;51369;49.862;9.908;2022-10-26T16:15:38;18.65;;;2.92;;
64875;SDS011;51369;49.862;9.908;2022-10-26T16:18:04;6.95;;;2.70;;
64875;SDS011;51369;49.862;9.908;2022-10-26T16:20:29;10.63;;;1.98;;
64875;SDS011;51369;49.862;9.908;2022-10-26T16:22:55;7.18;;;2.30;;
64875;SDS011;51369;49.862;9.908;2022-10-26T16:25:24;9.95;;;2.40;;
64875;SDS011;51369;49.862;9.908;2022-10-26T16:27:50;9.73;;;2.42;;
64875;SDS011;51369;49.862;9.908;2022-10-26T16:30:17;7.85;;;2.65;;
64875;SDS011;51369;49.862;9.908;2022-10-26T16:32:43;6.63;;;2.55;;
64875;SDS011;51369;49.862;9.908;2022-10-26T16:35:09;7.55;;;2.55;;
64875;SDS011;51369;49.862;9.908;2022-10-26T16:37:35;19.42;;;2.40;;
64875;SDS011;51369;49.862;9.908;2022-10-26T16:40:01;8.30;;;2.58;;
64875;SDS011;51369;49.862;9.908;2022-10-26T16:42:26;14.25;;;2.53;;
64875;SDS011;51369;49.862;9.908;2022-10-26T16:44:54;11.10;;;2.42;;
64875;SDS011;51369;49.862;9.908;2022-10-26T16:47:19;6.95;;;2.50;;
64875;SDS011;51369;49.862;9.908;2022-10-26T16:49:44;10.43;;;3.47;;
64875;SDS011;51369;49.862;9.908;2022-10-26T16:52:10;7.78;;;3.28;;
64875;SDS011;51369;49.862;9.908;2022-10-26T16:54:36;6.53;;;2.78;;
64875;SDS011;51369;49.862;9.908;2022-10-26T16:57:02;8.48;;;3.00;;
64875;SDS011;51369;49.862;9.908;2022-10-26T16:59:28;7.47;;;2.80;;
64875;SDS011;51369;49.862;9.908;2022-10-26T17:01:54;4.68;;;2.88;;
64875;SDS011;51369;49.862;9.908;2022-10-26T17:04:19;7.68;;;2.88;;
64875;SDS011;51369;49.862;9.908;2022-10-26T17:06:44;3.55;;;2.30;;
64875;SDS011;51369;49.862;9.908;2022-10-26T17:09:10;7.07;;;3.50;;
64875;SDS011;51369;49.862;9.908;2022-10-26T17:11:35;11.98;;;3.80;;
64875;SDS011;51369;49.862;9.908;2022-10-26T17:14:01;11.63;;;3.40;;
64875;SDS011;51369;49.862;9.908;2022-10-26T17:16:26;7.38;;;3.17;;
64875;SDS011;51369;49.862;9.908;2022-10-26T17:18:52;10.05;;;3.75;;
64875;SDS011;51369;49.862;9.908;2022-10-26T17:21:19;5.28;;;3.00;;
64875;SDS011;51369;49.862;9.908;2022-10-26T17:23:52;10.57;;;3.08;;
64875;SDS011;51369;49.862;9.908;2022-10-26T17:26:17;7.47;;;3.67;;
64875;SDS011;51369;49.862;9.908;2022-10-26T17:28:43;9.55;;;5.75;;
64875;SDS011;51369;49.862;9.908;2022-10-26T17:31:12;8.98;;;5.88;;
64875;SDS011;51369;49.862;9.908;2022-10-26T17:33:40;11.90;;;5.55;;
64875;SDS011;51369;49.862;9.908;2022-10-26T17:36:10;12.02;;;4.93;;
64875;SDS011;51369;49.862;9.908;2022-10-26T17:38:38;12.27;;;4.95;;
64875;SDS011;51369;49.862;9.908;2022-10-26T17:41:09;7.57;;;4.45;;
64875;SDS011;51369;49.862;9.908;2022-10-26T17:43:38;11.50;;;4.05;;
64875;SDS011;51369;49.862;9.908;2022-10-26T17:46:06;8.85;;;4.47;;
64875;SDS011;51369;49.862;9.908;2022-10-26T17:48:34;8.80;;;4.68;;